TrOMS Arcturus — LKNL — position and weather

sailwx.info

Track history (hours):
 
Tides and Currents Weather Stations Pressure Air Temp Water Temp Dewpoint Dewpoint Depression Visibility Wind Speed Wind Dir Waves Ship Positions

TrOMS Arcturus

Last reported at 2018-May-19 23:59 UTC. Time now 2018-May-20 14:11 UTC.
Position N 63°48' E 007°40'.

Length 95 m; draft 5.7 m.

Type: Other ship. MMSI: 257131000.

Date/timePositionNaut miles runAvg speedWind from/ knotsBaromVisibWave heightAir tempDewpointWater temp
2018-May-19 23:59N 63°48' E 007°40'5 9.7
2018-May-19 23:30N 63°43' E 007°39'5 9.9
2018-May-19 23:00N 63°38' E 007°39'510.1
2018-May-19 22:30N 63°33' E 007°38'510.4
2018-May-19 22:00N 63°28' E 007°37'510.0
2018-May-19 21:30N 63°23' E 007°37'5 9.7
2018-May-19 21:00N 63°18' E 007°36'4 8.5
2018-May-19 20:30N 63°15' E 007°42'4 7.7
2018-May-19 20:00N 63°11' E 007°44'4 9.0
2018-May-19 19:30N 63°06' E 007°42'3 5.0
2018-May-19 19:00N 63°06' E 007°47'0 0.0
2018-May-19 18:29N 63°06' E 007°47'0 0.0
2018-May-19 17:59N 63°06' E 007°47'0 0.0
2018-May-19 17:29N 63°06' E 007°47'0 0.0
2018-May-19 16:59N 63°06' E 007°47'0 0.0
2018-May-19 16:29N 63°06' E 007°47'0 0.0
2018-May-19 15:59N 63°06' E 007°47'0 0.0
2018-May-19 15:29N 63°06' E 007°47'0 0.0
2018-May-19 14:59N 63°06' E 007°47'0 0.0
2018-May-19 14:29N 63°06' E 007°47'0 0.0
2018-May-19 13:59N 63°06' E 007°47'0 0.0
2018-May-19 13:29N 63°06' E 007°47'0 0.0
2018-May-19 12:59N 63°06' E 007°47'0 0.0
2018-May-19 12:29N 63°06' E 007°47'0 0.0
2018-May-19 11:59N 63°06' E 007°47'0 0.0
2018-May-19 11:29N 63°06' E 007°47'0 0.0
2018-May-19 10:59N 63°06' E 007°47'0 0.0
2018-May-19 10:29N 63°06' E 007°47'0 0.0
2018-May-19 09:59N 63°06' E 007°47'0 0.0
2018-May-19 09:29N 63°06' E 007°47'0 0.0
2018-May-19 08:59N 63°06' E 007°47'0 0.0
2018-May-19 08:29N 63°06' E 007°47'0 0.0
2018-May-19 07:59N 63°06' E 007°47'0 0.0
2018-May-19 07:29N 63°06' E 007°47'0 0.0
2018-May-19 06:59N 63°06' E 007°47'0 0.0
2018-May-19 06:29N 63°06' E 007°47'0 0.0
2018-May-19 05:59N 63°06' E 007°47'0 0.0
2018-May-19 05:29N 63°06' E 007°47'0 0.3
2018-May-19 04:59N 63°06' E 007°47'0 0.0
2018-May-19 04:29N 63°06' E 007°47'0 0.0
2018-May-19 03:59N 63°06' E 007°47'0 0.0
2018-May-19 03:29N 63°06' E 007°47'0 0.0
2018-May-19 02:59N 63°06' E 007°47'0 0.0
2018-May-19 02:29N 63°06' E 007°47'0 0.0
2018-May-19 01:59N 63°06' E 007°47'0 0.0
2018-May-19 01:29N 63°06' E 007°47'0 0.0
2018-May-19 00:59N 63°06' E 007°47'0 0.0
2018-May-19 00:29N 63°06' E 007°47'0 0.0
2018-May-18 23:59N 63°06' E 007°47'0 0.0
2018-May-18 23:29N 63°06' E 007°47'0 0.0
2018-May-18 22:59N 63°06' E 007°47'0 0.0
2018-May-18 22:29N 63°06' E 007°47'0 0.0
2018-May-18 21:59N 63°06' E 007°47'0 0.0
2018-May-18 21:29N 63°06' E 007°47'0 0.0
2018-May-18 20:59N 63°06' E 007°47'0 0.0
2018-May-18 20:29N 63°06' E 007°47'0 0.0
2018-May-18 19:59N 63°06' E 007°47'0 0.0
2018-May-18 19:29N 63°06' E 007°47'0 0.0
2018-May-18 18:59N 63°06' E 007°47'0 0.0
2018-May-18 18:29N 63°06' E 007°47'0 0.0
2018-May-18 17:59N 63°06' E 007°47'0 0.0
2018-May-18 17:29N 63°06' E 007°47'0 0.0
2018-May-18 16:59N 63°06' E 007°47'0 0.0
2018-May-18 16:29N 63°06' E 007°47'0 0.0
2018-May-18 15:59N 63°06' E 007°47'0 0.0
2018-May-18 15:29N 63°06' E 007°47'0 0.0
2018-May-18 14:59N 63°06' E 007°47'0 0.0
2018-May-18 14:29N 63°06' E 007°47'0 0.0
2018-May-18 13:59N 63°06' E 007°47'0 0.0
2018-May-18 13:29N 63°06' E 007°47'0 0.0
2018-May-18 12:59N 63°06' E 007°47'0 0.0
2018-May-18 12:29N 63°06' E 007°47'0 0.0
2018-May-18 11:59N 63°06' E 007°47'0 0.0
2018-May-18 11:29N 63°06' E 007°47'0 0.0
2018-May-18 10:59N 63°06' E 007°47'0 0.0
2018-May-18 10:29N 63°06' E 007°47'0 0.0
2018-May-18 09:59N 63°06' E 007°47'0 0.0
2018-May-18 09:29N 63°06' E 007°47'0 0.0
2018-May-18 08:59N 63°06' E 007°47'0 0.0
2018-May-18 08:29N 63°06' E 007°47'0 0.0
2018-May-18 07:59N 63°06' E 007°47'0 0.0
2018-May-18 07:29N 63°06' E 007°47'0 0.0
2018-May-18 06:59N 63°06' E 007°47'0 0.0
2018-May-18 06:29N 63°06' E 007°47'0 0.0
2018-May-18 05:59N 63°06' E 007°47'0 0.0
2018-May-18 05:29N 63°06' E 007°47'0 0.0
2018-May-18 05:00N 63°06' E 007°47'1 1.5
2018-May-18 04:30N 63°06' E 007°45'3 7.1
2018-May-18 04:00N 63°09' E 007°42'4 7.4
2018-May-18 03:30N 63°13' E 007°45'4 7.7
2018-May-18 03:00N 63°15' E 007°39'4 7.5
2018-May-18 02:30N 63°18' E 007°35'4 7.8
2018-May-18 02:00N 63°22' E 007°32'4 7.8
2018-May-18 01:30N 63°26' E 007°30'4 7.6
2018-May-18 01:00N 63°30' E 007°28'4 7.2
2018-May-18 00:29N 63°33' E 007°26'4 7.4
2018-May-18 00:00N 63°37' E 007°23'  
2018-May-15 18:48N 63°47' E 007°32'3 9.9
2018-May-15 18:29N 63°44' E 007°32'510.4
2018-May-15 18:00N 63°39' E 007°33'610.9
2018-May-15 17:29N 63°33' E 007°34'510.8
2018-May-15 17:00N 63°28' E 007°34'510.5
2018-May-15 16:30N 63°23' E 007°35'510.3
2018-May-15 16:00N 63°18' E 007°36'5 9.5
2018-May-15 15:30N 63°14' E 007°42'4 8.3
2018-May-15 15:00N 63°10' E 007°43'4 7.9
2018-May-15 14:30N 63°06' E 007°43'2 3.5
2018-May-15 13:59N 63°06' E 007°47'0 0.0
2018-May-15 13:29N 63°06' E 007°47'0 0.0
2018-May-15 12:59N 63°06' E 007°47'0 0.0
2018-May-15 12:29N 63°06' E 007°47'0 0.0
2018-May-15 11:59N 63°06' E 007°47'0 0.0
2018-May-15 11:29N 63°06' E 007°47'0 0.0
2018-May-15 10:59N 63°06' E 007°47'0 0.0
2018-May-15 10:29N 63°06' E 007°47'0 0.0
2018-May-15 09:59N 63°06' E 007°47'0 0.0
2018-May-15 09:29N 63°06' E 007°47'0 0.0
2018-May-15 08:59N 63°06' E 007°47'0 0.0
2018-May-15 08:29N 63°06' E 007°47'0 0.0
2018-May-15 07:59N 63°06' E 007°47'0 0.0
2018-May-15 07:29N 63°06' E 007°47'0 0.0
2018-May-15 06:59N 63°06' E 007°47'0 0.0
2018-May-15 06:29N 63°06' E 007°47'0 0.0
2018-May-15 05:59N 63°06' E 007°47'0 0.0
2018-May-15 05:29N 63°06' E 007°47'0 0.0
2018-May-15 05:00N 63°06' E 007°47'3 5.4
2018-May-15 04:31N 63°06' E 007°41'3 6.7
2018-May-15 04:00N 63°09' E 007°42'4 7.0
2018-May-15 03:30N 63°13' E 007°44'4 7.7
2018-May-15 03:00N 63°15' E 007°38'4 7.2
2018-May-15 02:30N 63°18' E 007°35'4 8.4
2018-May-15 02:00N 63°22' E 007°33'4 8.6
2018-May-15 01:30N 63°27' E 007°31'4 8.2
2018-May-15 00:59N 63°31' E 007°29'4 7.6
2018-May-15 00:30N 63°34' E 007°27'4 8.3
2018-May-15 00:00N 63°39' E 007°25'44 1.1
2018-May-13 07:38N 64°21' E 007°47'0 0.0
2018-May-13 07:17N 64°21' E 007°47'0 0.0
2018-May-13 06:53N 64°21' E 007°47'0 0.0
2018-May-13 05:38N 64°21' E 007°47'15 5.7
2018-May-13 03:03N 64°07' E 007°40'6 9.6
2018-May-13 02:27N 64°01' E 007°40'14 9.4
2018-May-13 00:56N 63°47' E 007°39'4 9.7
2018-May-13 00:30N 63°43' E 007°38'5 9.6
2018-May-13 00:00N 63°38' E 007°37'510.1
2018-May-12 23:29N 63°33' E 007°36'510.0
2018-May-12 23:00N 63°28' E 007°36'5 9.9
2018-May-12 22:30N 63°23' E 007°37'510.1
2018-May-12 22:00N 63°18' E 007°37'4 9.1
2018-May-12 21:30N 63°14' E 007°43'4 8.4
2018-May-12 21:00N 63°10' E 007°43'4 8.0
2018-May-12 20:30N 63°06' E 007°43'2 3.8
2018-May-12 20:00N 63°06' E 007°47'0 0.6
2018-May-12 19:29N 63°06' E 007°48'0 0.0
2018-May-12 18:59N 63°06' E 007°48'0 0.0
2018-May-12 18:30N 63°06' E 007°48'0 0.0
2018-May-12 17:59N 63°06' E 007°48'0 0.0
2018-May-12 17:29N 63°06' E 007°48'0 0.0
2018-May-12 16:59N 63°06' E 007°48'0 0.0
2018-May-12 16:30N 63°06' E 007°48'0 0.6
2018-May-12 16:01N 63°06' E 007°47'0 0.0
2018-May-12 15:28N 63°06' E 007°47'0 0.0
2018-May-12 14:58N 63°06' E 007°47'0 0.0
2018-May-12 14:28N 63°06' E 007°47'0 0.0
2018-May-12 13:58N 63°06' E 007°47'0 0.0
2018-May-12 13:28N 63°06' E 007°47'0 0.0
2018-May-12 12:58N 63°06' E 007°47'0 0.0
2018-May-12 12:28N 63°06' E 007°47'0 0.0
2018-May-12 11:58N 63°06' E 007°47'0 0.0
2018-May-12 11:28N 63°06' E 007°47'0 0.0
2018-May-12 10:58N 63°06' E 007°47'0 0.0
2018-May-12 10:28N 63°06' E 007°47'0 0.0
2018-May-12 09:58N 63°06' E 007°47'0 0.0
2018-May-12 09:28N 63°06' E 007°47'0 0.0
2018-May-12 09:00N 63°06' E 007°47'2 4.9
2018-May-12 08:30N 63°06' E 007°42'4 8.8
2018-May-12 08:00N 63°10' E 007°43'4 8.0
2018-May-12 07:30N 63°14' E 007°41'5 9.3
2018-May-12 07:00N 63°18' E 007°36'5 9.6
2018-May-12 06:30N 63°23' E 007°36'5 9.3
2018-May-12 06:00N 63°28' E 007°35'4 8.8
2018-May-12 05:30N 63°32' E 007°35'5 9.2
2018-May-12 05:00N 63°37' E 007°35'5 9.3
2018-May-12 04:30N 63°41' E 007°35'5 0.2
2018-May-10 16:13N 63°39' E 007°24'2 9.7
2018-May-10 16:00N 63°37' E 007°25'510.1
2018-May-10 15:30N 63°32' E 007°28'5 9.9
2018-May-10 15:00N 63°27' E 007°31'5 9.6
2018-May-10 14:30N 63°22' E 007°33'5 9.7
2018-May-10 14:00N 63°17' E 007°35'4 8.7
2018-May-10 13:30N 63°14' E 007°41'4 7.5
2018-May-10 13:00N 63°11' E 007°44'4 8.8
2018-May-10 12:30N 63°06' E 007°42'2 4.5
2018-May-10 12:00N 63°06' E 007°47'0 0.0
2018-May-10 11:28N 63°06' E 007°47'0 0.0
2018-May-10 10:58N 63°06' E 007°47'0 0.0
2018-May-10 10:28N 63°06' E 007°47'0 0.0
2018-May-10 09:58N 63°06' E 007°47'0 0.0
2018-May-10 09:28N 63°06' E 007°47'0 0.0
2018-May-10 08:58N 63°06' E 007°47'0 0.0
2018-May-10 08:28N 63°06' E 007°47'0 0.0
2018-May-10 07:58N 63°06' E 007°47'0 0.0
2018-May-10 07:28N 63°06' E 007°47'0 0.0
2018-May-10 06:58N 63°06' E 007°47'0 0.0
2018-May-10 06:28N 63°06' E 007°47'0 0.0
2018-May-10 05:58N 63°06' E 007°47'0 0.0
2018-May-10 05:30N 63°06' E 007°47'0 0.1
2018-May-10 05:00N 63°06' E 007°47'3 5.5
2018-May-10 04:30N 63°06' E 007°41'3 6.5
2018-May-10 04:00N 63°09' E 007°43'3 6.7
2018-May-10 03:31N 63°13' E 007°46'4 7.4
2018-May-10 03:01N 63°15' E 007°39'4 8.1
2018-May-10 02:30N 63°18' E 007°34'4 8.3
2018-May-10 02:00N 63°22' E 007°32'4 8.1
2018-May-10 01:30N 63°26' E 007°31'4 8.1
2018-May-10 01:00N 63°30' E 007°28'4 8.1
2018-May-10 00:30N 63°34' E 007°25'4 7.9
2018-May-10 00:00N 63°38' E 007°23'  
Track history (hours):
 
Tides and Currents Weather Stations Pressure Air Temp Water Temp Dewpoint Dewpoint Depression Visibility Wind Speed Wind Dir Waves Ship Positions

TrOMS Arcturus

Last reported at 2018-May-19 23:59 UTC. Time now 2018-May-20 14:11 UTC.
Position N 63°48' E 007°40'.

Length 95 m; draft 5.7 m.

Type: Other ship. MMSI: 257131000.

Date/timePositionNaut miles runAvg speedWind from/ knotsBaromVisibWave heightAir tempDewpointWater temp
2018-May-19 23:59N 63°48' E 007°40'5 9.7
2018-May-19 23:30N 63°43' E 007°39'5 9.9
2018-May-19 23:00N 63°38' E 007°39'510.1
2018-May-19 22:30N 63°33' E 007°38'510.4
2018-May-19 22:00N 63°28' E 007°37'510.0
2018-May-19 21:30N 63°23' E 007°37'5 9.7
2018-May-19 21:00N 63°18' E 007°36'4 8.5
2018-May-19 20:30N 63°15' E 007°42'4 7.7
2018-May-19 20:00N 63°11' E 007°44'4 9.0
2018-May-19 19:30N 63°06' E 007°42'3 5.0
2018-May-19 19:00N 63°06' E 007°47'0 0.0
2018-May-19 18:29N 63°06' E 007°47'0 0.0
2018-May-19 17:59N 63°06' E 007°47'0 0.0
2018-May-19 17:29N 63°06' E 007°47'0 0.0
2018-May-19 16:59N 63°06' E 007°47'0 0.0
2018-May-19 16:29N 63°06' E 007°47'0 0.0
2018-May-19 15:59N 63°06' E 007°47'0 0.0
2018-May-19 15:29N 63°06' E 007°47'0 0.0
2018-May-19 14:59N 63°06' E 007°47'0 0.0
2018-May-19 14:29N 63°06' E 007°47'0 0.0
2018-May-19 13:59N 63°06' E 007°47'0 0.0
2018-May-19 13:29N 63°06' E 007°47'0 0.0
2018-May-19 12:59N 63°06' E 007°47'0 0.0
2018-May-19 12:29N 63°06' E 007°47'0 0.0
2018-May-19 11:59N 63°06' E 007°47'0 0.0
2018-May-19 11:29N 63°06' E 007°47'0 0.0
2018-May-19 10:59N 63°06' E 007°47'0 0.0
2018-May-19 10:29N 63°06' E 007°47'0 0.0
2018-May-19 09:59N 63°06' E 007°47'0 0.0
2018-May-19 09:29N 63°06' E 007°47'0 0.0
2018-May-19 08:59N 63°06' E 007°47'0 0.0
2018-May-19 08:29N 63°06' E 007°47'0 0.0
2018-May-19 07:59N 63°06' E 007°47'0 0.0
2018-May-19 07:29N 63°06' E 007°47'0 0.0
2018-May-19 06:59N 63°06' E 007°47'0 0.0
2018-May-19 06:29N 63°06' E 007°47'0 0.0
2018-May-19 05:59N 63°06' E 007°47'0 0.0
2018-May-19 05:29N 63°06' E 007°47'0 0.3
2018-May-19 04:59N 63°06' E 007°47'0 0.0
2018-May-19 04:29N 63°06' E 007°47'0 0.0
2018-May-19 03:59N 63°06' E 007°47'0 0.0
2018-May-19 03:29N 63°06' E 007°47'0 0.0
2018-May-19 02:59N 63°06' E 007°47'0 0.0
2018-May-19 02:29N 63°06' E 007°47'0 0.0
2018-May-19 01:59N 63°06' E 007°47'0 0.0
2018-May-19 01:29N 63°06' E 007°47'0 0.0
2018-May-19 00:59N 63°06' E 007°47'0 0.0
2018-May-19 00:29N 63°06' E 007°47'0 0.0
2018-May-18 23:59N 63°06' E 007°47'0 0.0
2018-May-18 23:29N 63°06' E 007°47'0 0.0
2018-May-18 22:59N 63°06' E 007°47'0 0.0
2018-May-18 22:29N 63°06' E 007°47'0 0.0
2018-May-18 21:59N 63°06' E 007°47'0 0.0
2018-May-18 21:29N 63°06' E 007°47'0 0.0
2018-May-18 20:59N 63°06' E 007°47'0 0.0
2018-May-18 20:29N 63°06' E 007°47'0 0.0
2018-May-18 19:59N 63°06' E 007°47'0 0.0
2018-May-18 19:29N 63°06' E 007°47'0 0.0
2018-May-18 18:59N 63°06' E 007°47'0 0.0
2018-May-18 18:29N 63°06' E 007°47'0 0.0
2018-May-18 17:59N 63°06' E 007°47'0 0.0
2018-May-18 17:29N 63°06' E 007°47'0 0.0
2018-May-18 16:59N 63°06' E 007°47'0 0.0
2018-May-18 16:29N 63°06' E 007°47'0 0.0
2018-May-18 15:59N 63°06' E 007°47'0 0.0
2018-May-18 15:29N 63°06' E 007°47'0 0.0
2018-May-18 14:59N 63°06' E 007°47'0 0.0
2018-May-18 14:29N 63°06' E 007°47'0 0.0
2018-May-18 13:59N 63°06' E 007°47'0 0.0
2018-May-18 13:29N 63°06' E 007°47'0 0.0
2018-May-18 12:59N 63°06' E 007°47'0 0.0
2018-May-18 12:29N 63°06' E 007°47'0 0.0
2018-May-18 11:59N 63°06' E 007°47'0 0.0
2018-May-18 11:29N 63°06' E 007°47'0 0.0
2018-May-18 10:59N 63°06' E 007°47'0 0.0
2018-May-18 10:29N 63°06' E 007°47'0 0.0
2018-May-18 09:59N 63°06' E 007°47'0 0.0
2018-May-18 09:29N 63°06' E 007°47'0 0.0
2018-May-18 08:59N 63°06' E 007°47'0 0.0
2018-May-18 08:29N 63°06' E 007°47'0 0.0
2018-May-18 07:59N 63°06' E 007°47'0 0.0
2018-May-18 07:29N 63°06' E 007°47'0 0.0
2018-May-18 06:59N 63°06' E 007°47'0 0.0
2018-May-18 06:29N 63°06' E 007°47'0 0.0
2018-May-18 05:59N 63°06' E 007°47'0 0.0
2018-May-18 05:29N 63°06' E 007°47'0 0.0
2018-May-18 05:00N 63°06' E 007°47'1 1.5
2018-May-18 04:30N 63°06' E 007°45'3 7.1
2018-May-18 04:00N 63°09' E 007°42'4 7.4
2018-May-18 03:30N 63°13' E 007°45'4 7.7
2018-May-18 03:00N 63°15' E 007°39'4 7.5
2018-May-18 02:30N 63°18' E 007°35'4 7.8
2018-May-18 02:00N 63°22' E 007°32'4 7.8
2018-May-18 01:30N 63°26' E 007°30'4 7.6
2018-May-18 01:00N 63°30' E 007°28'4 7.2
2018-May-18 00:29N 63°33' E 007°26'4 7.4
2018-May-18 00:00N 63°37' E 007°23'  
2018-May-15 18:48N 63°47' E 007°32'3 9.9
2018-May-15 18:29N 63°44' E 007°32'510.4
2018-May-15 18:00N 63°39' E 007°33'610.9
2018-May-15 17:29N 63°33' E 007°34'510.8
2018-May-15 17:00N 63°28' E 007°34'510.5
2018-May-15 16:30N 63°23' E 007°35'510.3
2018-May-15 16:00N 63°18' E 007°36'5 9.5
2018-May-15 15:30N 63°14' E 007°42'4 8.3
2018-May-15 15:00N 63°10' E 007°43'4 7.9
2018-May-15 14:30N 63°06' E 007°43'2 3.5
2018-May-15 13:59N 63°06' E 007°47'0 0.0
2018-May-15 13:29N 63°06' E 007°47'0 0.0
2018-May-15 12:59N 63°06' E 007°47'0 0.0
2018-May-15 12:29N 63°06' E 007°47'0 0.0
2018-May-15 11:59N 63°06' E 007°47'0 0.0
2018-May-15 11:29N 63°06' E 007°47'0 0.0
2018-May-15 10:59N 63°06' E 007°47'0 0.0
2018-May-15 10:29N 63°06' E 007°47'0 0.0
2018-May-15 09:59N 63°06' E 007°47'0 0.0
2018-May-15 09:29N 63°06' E 007°47'0 0.0
2018-May-15 08:59N 63°06' E 007°47'0 0.0
2018-May-15 08:29N 63°06' E 007°47'0 0.0
2018-May-15 07:59N 63°06' E 007°47'0 0.0
2018-May-15 07:29N 63°06' E 007°47'0 0.0
2018-May-15 06:59N 63°06' E 007°47'0 0.0
2018-May-15 06:29N 63°06' E 007°47'0 0.0
2018-May-15 05:59N 63°06' E 007°47'0 0.0
2018-May-15 05:29N 63°06' E 007°47'0 0.0
2018-May-15 05:00N 63°06' E 007°47'3 5.4
2018-May-15 04:31N 63°06' E 007°41'3 6.7
2018-May-15 04:00N 63°09' E 007°42'4 7.0
2018-May-15 03:30N 63°13' E 007°44'4 7.7
2018-May-15 03:00N 63°15' E 007°38'4 7.2
2018-May-15 02:30N 63°18' E 007°35'4 8.4
2018-May-15 02:00N 63°22' E 007°33'4 8.6
2018-May-15 01:30N 63°27' E 007°31'4 8.2
2018-May-15 00:59N 63°31' E 007°29'4 7.6
2018-May-15 00:30N 63°34' E 007°27'4 8.3
2018-May-15 00:00N 63°39' E 007°25'44 1.1
2018-May-13 07:38N 64°21' E 007°47'0 0.0
2018-May-13 07:17N 64°21' E 007°47'0 0.0
2018-May-13 06:53N 64°21' E 007°47'0 0.0
2018-May-13 05:38N 64°21' E 007°47'15 5.7
2018-May-13 03:03N 64°07' E 007°40'6 9.6
2018-May-13 02:27N 64°01' E 007°40'14 9.4
2018-May-13 00:56N 63°47' E 007°39'4 9.7
2018-May-13 00:30N 63°43' E 007°38'5 9.6
2018-May-13 00:00N 63°38' E 007°37'510.1
2018-May-12 23:29N 63°33' E 007°36'510.0
2018-May-12 23:00N 63°28' E 007°36'5 9.9
2018-May-12 22:30N 63°23' E 007°37'510.1
2018-May-12 22:00N 63°18' E 007°37'4 9.1
2018-May-12 21:30N 63°14' E 007°43'4 8.4
2018-May-12 21:00N 63°10' E 007°43'4 8.0
2018-May-12 20:30N 63°06' E 007°43'2 3.8
2018-May-12 20:00N 63°06' E 007°47'0 0.6
2018-May-12 19:29N 63°06' E 007°48'0 0.0
2018-May-12 18:59N 63°06' E 007°48'0 0.0
2018-May-12 18:30N 63°06' E 007°48'0 0.0
2018-May-12 17:59N 63°06' E 007°48'0 0.0
2018-May-12 17:29N 63°06' E 007°48'0 0.0
2018-May-12 16:59N 63°06' E 007°48'0 0.0
2018-May-12 16:30N 63°06' E 007°48'0 0.6
2018-May-12 16:01N 63°06' E 007°47'0 0.0
2018-May-12 15:28N 63°06' E 007°47'0 0.0
2018-May-12 14:58N 63°06' E 007°47'0 0.0
2018-May-12 14:28N 63°06' E 007°47'0 0.0
2018-May-12 13:58N 63°06' E 007°47'0 0.0
2018-May-12 13:28N 63°06' E 007°47'0 0.0
2018-May-12 12:58N 63°06' E 007°47'0 0.0
2018-May-12 12:28N 63°06' E 007°47'0 0.0
2018-May-12 11:58N 63°06' E 007°47'0 0.0
2018-May-12 11:28N 63°06' E 007°47'0 0.0
2018-May-12 10:58N 63°06' E 007°47'0 0.0
2018-May-12 10:28N 63°06' E 007°47'0 0.0
2018-May-12 09:58N 63°06' E 007°47'0 0.0
2018-May-12 09:28N 63°06' E 007°47'0 0.0
2018-May-12 09:00N 63°06' E 007°47'2 4.9
2018-May-12 08:30N 63°06' E 007°42'4 8.8
2018-May-12 08:00N 63°10' E 007°43'4 8.0
2018-May-12 07:30N 63°14' E 007°41'5 9.3
2018-May-12 07:00N 63°18' E 007°36'5 9.6
2018-May-12 06:30N 63°23' E 007°36'5 9.3
2018-May-12 06:00N 63°28' E 007°35'4 8.8
2018-May-12 05:30N 63°32' E 007°35'5 9.2
2018-May-12 05:00N 63°37' E 007°35'5 9.3
2018-May-12 04:30N 63°41' E 007°35'5 0.2
2018-May-10 16:13N 63°39' E 007°24'2 9.7
2018-May-10 16:00N 63°37' E 007°25'510.1
2018-May-10 15:30N 63°32' E 007°28'5 9.9
2018-May-10 15:00N 63°27' E 007°31'5 9.6
2018-May-10 14:30N 63°22' E 007°33'5 9.7
2018-May-10 14:00N 63°17' E 007°35'4 8.7
2018-May-10 13:30N 63°14' E 007°41'4 7.5
2018-May-10 13:00N 63°11' E 007°44'4 8.8
2018-May-10 12:30N 63°06' E 007°42'2 4.5
2018-May-10 12:00N 63°06' E 007°47'0 0.0
2018-May-10 11:28N 63°06' E 007°47'0 0.0
2018-May-10 10:58N 63°06' E 007°47'0 0.0
2018-May-10 10:28N 63°06' E 007°47'0 0.0
2018-May-10 09:58N 63°06' E 007°47'0 0.0
2018-May-10 09:28N 63°06' E 007°47'0 0.0
2018-May-10 08:58N 63°06' E 007°47'0 0.0
2018-May-10 08:28N 63°06' E 007°47'0 0.0
2018-May-10 07:58N 63°06' E 007°47'0 0.0
2018-May-10 07:28N 63°06' E 007°47'0 0.0
2018-May-10 06:58N 63°06' E 007°47'0 0.0
2018-May-10 06:28N 63°06' E 007°47'0 0.0
2018-May-10 05:58N 63°06' E 007°47'0 0.0
2018-May-10 05:30N 63°06' E 007°47'0 0.1
2018-May-10 05:00N 63°06' E 007°47'3 5.5
2018-May-10 04:30N 63°06' E 007°41'3 6.5
2018-May-10 04:00N 63°09' E 007°43'3 6.7
2018-May-10 03:31N 63°13' E 007°46'4 7.4
2018-May-10 03:01N 63°15' E 007°39'4 8.1
2018-May-10 02:30N 63°18' E 007°34'4 8.3
2018-May-10 02:00N 63°22' E 007°32'4 8.1
2018-May-10 01:30N 63°26' E 007°31'4 8.1
2018-May-10 01:00N 63°30' E 007°28'4 8.1
2018-May-10 00:30N 63°34' E 007°25'4 7.9
2018-May-10 00:00N 63°38' E 007°23'  

Dump ship's entire track history